createdAt,value
2022-08-19T00:01:30.211Z,13.83
2022-08-19T00:03:59.112Z,13.96
2022-08-19T00:06:28.401Z,14.16
2022-08-19T00:08:56.411Z,14.24
2022-08-19T00:11:25.454Z,14.19
2022-08-19T00:13:54.075Z,14.13
2022-08-19T00:16:25.189Z,14.07
2022-08-19T00:18:56.379Z,13.98
2022-08-19T00:21:30.134Z,13.88
2022-08-19T00:23:59.173Z,13.85
2022-08-19T00:26:28.078Z,13.92
2022-08-19T00:28:55.857Z,13.91
2022-08-19T00:31:23.444Z,13.82
2022-08-19T00:33:51.484Z,13.82
2022-08-19T00:36:18.612Z,13.78
2022-08-19T00:38:45.747Z,13.78
2022-08-19T00:41:19.038Z,13.78
2022-08-19T00:44:08.590Z,13.74
2022-08-19T00:46:38.411Z,13.66
2022-08-19T00:49:15.489Z,13.62
2022-08-19T00:51:45.875Z,13.57
2022-08-19T00:54:13.230Z,13.56
2022-08-19T00:56:41.699Z,13.54
2022-08-19T00:59:10.040Z,13.49
2022-08-19T01:01:38.597Z,13.44
2022-08-19T01:04:05.703Z,13.42
2022-08-19T01:06:33.554Z,13.42
2022-08-19T01:09:00.857Z,13.41
2022-08-19T01:11:29.556Z,13.39
2022-08-19T01:13:56.557Z,13.32
2022-08-19T01:16:26.232Z,13.23
2022-08-19T01:18:53.325Z,13.17
2022-08-19T01:21:32.256Z,13.15
2022-08-19T01:23:59.953Z,13.15
2022-08-19T01:26:27.838Z,13.15
2022-08-19T01:29:00.699Z,13.15
2022-08-19T01:31:33.570Z,13.12
2022-08-19T01:34:02.161Z,13.09
2022-08-19T01:36:34.382Z,13.01
2022-08-19T01:39:04.332Z,12.96
2022-08-19T01:41:31.135Z,12.89
2022-08-19T01:44:13.698Z,12.88
2022-08-19T01:46:46.589Z,13.18
2022-08-19T01:49:15.014Z,13.31
2022-08-19T01:51:41.840Z,13.50
2022-08-19T01:54:10.726Z,13.63
2022-08-19T01:56:39.603Z,13.60
2022-08-19T01:59:11.727Z,13.66
2022-08-19T02:01:39.004Z,13.80
2022-08-19T02:04:06.746Z,13.80
2022-08-19T02:06:34.182Z,13.83
2022-08-19T02:09:01.477Z,13.84
2022-08-19T02:11:35.001Z,13.73
2022-08-19T02:14:04.381Z,13.66
2022-08-19T02:16:31.684Z,13.61
2022-08-19T02:19:01.509Z,13.57
2022-08-19T02:21:29.924Z,13.60
2022-08-19T02:23:57.072Z,13.64
2022-08-19T02:26:24.523Z,13.68
2022-08-19T02:28:51.407Z,13.66
2022-08-19T02:31:21.856Z,13.64
2022-08-19T02:33:49.366Z,13.71
2022-08-19T02:36:20.652Z,13.70
2022-08-19T02:38:55.137Z,13.63
2022-08-19T02:41:27.201Z,13.61
2022-08-19T02:44:28.554Z,13.53
2022-08-19T02:46:46.226Z,13.47
2022-08-19T02:49:13.233Z,13.43
2022-08-19T02:51:44.834Z,13.38
2022-08-19T02:54:13.774Z,13.36
2022-08-19T02:56:42.762Z,13.41
2022-08-19T02:59:11.258Z,13.47
2022-08-19T03:01:41.762Z,13.55
2022-08-19T03:04:12.705Z,13.62
2022-08-19T03:06:41.141Z,13.67
2022-08-19T03:09:08.625Z,13.63
2022-08-19T03:11:35.627Z,13.56
2022-08-19T03:14:04.622Z,13.50
2022-08-19T03:16:34.366Z,13.46
2022-08-19T03:19:02.843Z,13.40
2022-08-19T03:21:35.063Z,13.38
2022-08-19T03:24:06.082Z,13.34
2022-08-19T03:26:33.424Z,13.34
2022-08-19T03:29:04.950Z,13.28
2022-08-19T03:31:44.116Z,13.22
2022-08-19T03:34:21.834Z,13.16
2022-08-19T03:36:49.201Z,13.21
2022-08-19T03:39:16.600Z,13.23
2022-08-19T03:41:46.546Z,13.24
2022-08-19T03:44:21.566Z,13.18
2022-08-19T03:46:51.026Z,13.14
2022-08-19T03:49:19.574Z,13.11
2022-08-19T03:51:48.793Z,13.13
2022-08-19T03:54:17.240Z,13.12
2022-08-19T03:56:46.369Z,13.12
2022-08-19T03:59:17.931Z,13.15
2022-08-19T04:01:45.060Z,13.13
2022-08-19T04:04:11.871Z,13.09
2022-08-19T04:06:40.160Z,13.03
2022-08-19T04:09:10.364Z,12.99
2022-08-19T04:11:44.480Z,12.98
2022-08-19T04:14:15.063Z,12.99
2022-08-19T04:16:44.783Z,13.06
2022-08-19T04:19:12.539Z,13.05
2022-08-19T04:21:40.330Z,13.08
2022-08-19T04:24:07.698Z,13.14
2022-08-19T04:26:37.620Z,13.14
2022-08-19T04:29:14.806Z,13.12
2022-08-19T04:31:44.381Z,13.10
2022-08-19T04:34:13.348Z,13.11
2022-08-19T04:36:42.474Z,13.20
2022-08-19T04:39:15.535Z,13.24
2022-08-19T04:42:01.043Z,13.35
2022-08-19T04:44:31.479Z,13.54
2022-08-19T04:47:00.304Z,13.67
2022-08-19T04:49:28.839Z,13.68
2022-08-19T04:51:55.964Z,13.63
2022-08-19T04:54:37.645Z,13.64
2022-08-19T04:57:07.919Z,13.72
2022-08-19T04:59:36.366Z,13.89
2022-08-19T05:02:04.634Z,14.01
2022-08-19T05:04:33.837Z,14.08
2022-08-19T05:07:02.087Z,14.13
2022-08-19T05:09:42.174Z,14.23
2022-08-19T05:12:17.814Z,14.35
2022-08-19T05:14:46.965Z,14.47
2022-08-19T05:17:33.497Z,14.63
2022-08-19T05:20:20.652Z,14.73
2022-08-19T05:22:48.667Z,14.87
2022-08-19T05:25:21.354Z,15.16
2022-08-19T05:27:48.852Z,15.28
2022-08-19T05:30:16.506Z,15.27
2022-08-19T05:32:43.746Z,15.40
2022-08-19T05:35:10.855Z,15.64
2022-08-19T05:37:37.686Z,15.98
2022-08-19T05:40:05.363Z,16.15
2022-08-19T05:42:32.629Z,16.32
2022-08-19T05:44:59.518Z,16.25
2022-08-19T05:47:26.431Z,16.14
2022-08-19T05:49:53.246Z,16.10
2022-08-19T05:52:25.823Z,16.05
2022-08-19T05:54:55.988Z,16.16
2022-08-19T05:57:24.413Z,16.36
2022-08-19T05:59:53.089Z,16.81
2022-08-19T06:02:25.903Z,17.41
2022-08-19T06:04:52.800Z,17.88
2022-08-19T06:07:20.384Z,18.33
2022-08-19T06:09:58.897Z,18.73
2022-08-19T06:12:32.320Z,19.14
2022-08-19T06:15:01.153Z,19.42
2022-08-19T06:17:31.608Z,19.69
2022-08-19T06:19:59.677Z,19.90
2022-08-19T06:22:27.751Z,20.26
2022-08-19T06:24:55.585Z,20.48
2022-08-19T06:27:23.266Z,20.74
2022-08-19T06:29:50.320Z,20.98
2022-08-19T06:32:20.096Z,21.18
2022-08-19T06:34:47.585Z,21.63
2022-08-19T06:37:14.590Z,21.85
2022-08-19T06:39:43.438Z,21.98
2022-08-19T06:42:12.571Z,22.25
2022-08-19T06:44:42.676Z,22.44
2022-08-19T06:47:14.690Z,22.63
2022-08-19T06:49:43.341Z,22.77
2022-08-19T06:52:15.418Z,23.13
2022-08-19T06:54:55.892Z,23.26
2022-08-19T06:57:25.182Z,23.54
2022-08-19T06:59:52.410Z,23.82
2022-08-19T07:02:21.578Z,24.10
2022-08-19T07:04:52.573Z,24.17
2022-08-19T07:07:21.828Z,24.48
2022-08-19T07:09:51.785Z,24.76
2022-08-19T07:12:35.714Z,25.19
2022-08-19T07:15:06.127Z,25.43
2022-08-19T07:17:34.671Z,25.57
2022-08-19T07:20:05.540Z,25.77
2022-08-19T07:22:41.113Z,26.04
2022-08-19T07:25:10.404Z,26.15
2022-08-19T07:27:39.771Z,26.32
2022-08-19T07:30:11.652Z,26.42
2022-08-19T07:32:39.351Z,26.59
2022-08-19T07:35:07.360Z,27.11
2022-08-19T07:37:36.489Z,27.08
2022-08-19T07:40:05.211Z,27.20
2022-08-19T07:42:32.032Z,27.30
2022-08-19T07:44:59.581Z,27.61
2022-08-19T07:47:50.347Z,27.69
2022-08-19T07:50:15.155Z,27.74
2022-08-19T07:52:45.731Z,27.90
2022-08-19T07:55:40.702Z,28.04
2022-08-19T07:58:05.924Z,28.23
2022-08-19T08:00:33.110Z,28.37
2022-08-19T08:02:59.911Z,28.87
2022-08-19T08:05:45.278Z,28.98
2022-08-19T08:08:32.279Z,28.86
2022-08-19T08:11:00.406Z,28.80
2022-08-19T08:13:28.089Z,29.05
2022-08-19T08:15:56.581Z,29.21
2022-08-19T08:18:28.019Z,29.08
2022-08-19T08:20:58.355Z,29.47
2022-08-19T08:23:26.866Z,29.73
2022-08-19T08:25:57.690Z,30.12
2022-08-19T08:28:26.188Z,30.44
2022-08-19T08:30:56.688Z,30.55
2022-08-19T08:33:30.103Z,30.48
2022-08-19T08:36:11.931Z,30.13
2022-08-19T08:38:40.501Z,30.38
2022-08-19T08:41:28.751Z,30.76
2022-08-19T08:43:58.052Z,30.76
2022-08-19T08:46:42.773Z,30.92
2022-08-19T08:49:21.484Z,31.36
2022-08-19T08:52:00.430Z,31.20
2022-08-19T08:54:34.714Z,31.46
2022-08-19T08:57:08.519Z,31.30
2022-08-19T08:59:39.692Z,31.73
2022-08-19T09:02:06.622Z,32.07
2022-08-19T09:04:35.953Z,32.28
2022-08-19T09:07:34.849Z,32.88
2022-08-19T09:10:14.979Z,32.84
2022-08-19T09:13:09.451Z,32.98
2022-08-19T09:15:45.402Z,33.26
2022-08-19T09:18:19.354Z,33.28
2022-08-19T09:20:50.519Z,33.29
2022-08-19T09:23:17.536Z,33.17
2022-08-19T09:25:44.442Z,33.44
2022-08-19T09:28:20.326Z,33.24
2022-08-19T09:30:53.104Z,33.51
2022-08-19T09:33:20.733Z,33.80
2022-08-19T09:35:53.177Z,33.89
2022-08-19T09:38:21.923Z,33.19
2022-08-19T09:40:50.078Z,32.98
2022-08-19T09:43:33.068Z,33.22
2022-08-19T09:46:02.263Z,33.15
2022-08-19T09:48:29.202Z,33.38
2022-08-19T09:50:56.179Z,33.84
2022-08-19T09:53:25.612Z,33.78
2022-08-19T09:55:53.190Z,32.92
2022-08-19T09:58:23.478Z,32.39
2022-08-19T10:00:54.722Z,33.17
2022-08-19T10:03:21.687Z,33.52
2022-08-19T10:05:55.453Z,33.67
2022-08-19T10:08:27.382Z,33.98
2022-08-19T10:10:55.930Z,34.17
2022-08-19T10:13:25.977Z,34.38
2022-08-19T10:15:54.611Z,34.98
2022-08-19T10:18:25.390Z,35.36
2022-08-19T10:20:54.606Z,34.53
2022-08-19T10:23:22.058Z,34.62
2022-08-19T10:25:50.722Z,35.09
2022-08-19T10:28:19.213Z,34.95
2022-08-19T10:30:47.488Z,35.29
2022-08-19T10:33:16.156Z,35.32
2022-08-19T10:36:05.859Z,35.34
2022-08-19T10:38:33.115Z,35.32
2022-08-19T10:41:14.938Z,35.60
2022-08-19T10:43:43.060Z,36.09
2022-08-19T10:46:14.020Z,36.08
2022-08-19T10:48:44.614Z,35.87
2022-08-19T10:51:30.720Z,35.81
2022-08-19T10:53:59.238Z,36.19
2022-08-19T10:56:45.629Z,36.03
2022-08-19T10:59:14.628Z,36.22
2022-08-19T11:01:43.595Z,36.49
2022-08-19T11:04:12.169Z,36.51
2022-08-19T11:06:39.452Z,37.27
2022-08-19T11:09:06.947Z,37.41
2022-08-19T11:11:40.407Z,37.83
2022-08-19T11:14:12.120Z,37.91
2022-08-19T11:16:42.238Z,37.45
2022-08-19T11:19:11.960Z,35.51
2022-08-19T11:21:41.788Z,34.38
2022-08-19T11:24:12.411Z,35.18
2022-08-19T11:26:40.847Z,36.19
2022-08-19T11:29:14.288Z,36.10
2022-08-19T11:31:44.670Z,34.09
2022-08-19T11:34:14.382Z,33.26
2022-08-19T11:36:43.840Z,32.49
2022-08-19T11:39:11.920Z,32.48
2022-08-19T11:41:38.796Z,33.77
2022-08-19T11:44:08.661Z,34.72
2022-08-19T11:46:37.947Z,33.84
2022-08-19T11:49:08.619Z,33.04
2022-08-19T11:51:37.692Z,33.99
2022-08-19T11:54:06.576Z,33.02
2022-08-19T11:56:33.392Z,33.50
2022-08-19T11:59:01.622Z,33.62
2022-08-19T12:01:29.937Z,33.84
2022-08-19T12:03:57.730Z,34.08
2022-08-19T12:06:30.360Z,33.59
2022-08-19T12:08:58.394Z,32.53
2022-08-19T12:11:26.603Z,32.17
2022-08-19T12:13:54.620Z,34.09
2022-08-19T12:16:27.866Z,35.75
2022-08-19T12:18:56.684Z,35.70
2022-08-19T12:21:27.613Z,35.98
2022-08-19T12:23:56.051Z,35.38
2022-08-19T12:26:23.862Z,35.53
2022-08-19T12:28:51.074Z,35.02
2022-08-19T12:31:18.928Z,34.08
2022-08-19T12:33:45.857Z,33.57
2022-08-19T12:36:15.466Z,33.00
2022-08-19T12:38:42.748Z,32.42
2022-08-19T12:41:13.364Z,31.97
2022-08-19T12:43:40.187Z,30.69
2022-08-19T12:46:07.244Z,29.73
2022-08-19T12:48:38.115Z,29.12
2022-08-19T12:51:08.819Z,29.47
2022-08-19T12:53:39.424Z,29.39
2022-08-19T12:56:08.130Z,28.55
2022-08-19T12:58:40.098Z,29.00
2022-08-19T13:01:09.156Z,28.85
2022-08-19T13:03:40.342Z,29.09
2022-08-19T13:06:08.342Z,29.92
2022-08-19T13:08:35.191Z,29.70
2022-08-19T13:11:21.537Z,30.17
2022-08-19T13:13:51.927Z,29.68
2022-08-19T13:16:21.047Z,27.99
2022-08-19T13:18:48.610Z,26.43
2022-08-19T13:21:15.498Z,26.17
2022-08-19T13:23:42.431Z,25.35
2022-08-19T13:26:11.483Z,25.52
2022-08-19T13:28:57.215Z,25.56
2022-08-19T13:31:44.925Z,25.69
2022-08-19T13:34:12.187Z,25.76
2022-08-19T13:36:39.697Z,25.16
2022-08-19T13:39:09.388Z,24.67
2022-08-19T13:41:37.400Z,24.14
2022-08-19T13:44:05.413Z,23.84
2022-08-19T13:46:32.229Z,23.62
2022-08-19T13:48:58.997Z,23.50
2022-08-19T13:51:25.761Z,23.24
2022-08-19T13:53:52.752Z,23.22
2022-08-19T13:56:26.348Z,23.24
2022-08-19T13:58:54.550Z,23.36
2022-08-19T14:01:24.527Z,23.49
2022-08-19T14:03:52.302Z,23.61
2022-08-19T14:06:19.433Z,23.52
2022-08-19T14:08:47.231Z,23.05
2022-08-19T14:11:14.612Z,22.82
2022-08-19T14:13:41.645Z,22.52
2022-08-19T14:16:10.672Z,22.41
2022-08-19T14:18:38.460Z,22.31
2022-08-19T14:21:05.907Z,22.38
2022-08-19T14:23:33.548Z,22.47
2022-08-19T14:26:13.041Z,22.68
2022-08-19T14:28:42.713Z,22.92
2022-08-19T14:31:17.591Z,23.29
2022-08-19T14:33:44.363Z,23.41
2022-08-19T14:36:11.166Z,23.52
2022-08-19T14:38:38.078Z,23.59
2022-08-19T14:41:18.374Z,23.90
2022-08-19T14:43:47.459Z,24.47
2022-08-19T14:46:17.045Z,25.20
2022-08-19T14:48:44.420Z,26.12
2022-08-19T14:51:11.322Z,26.96
2022-08-19T14:53:38.926Z,29.40
2022-08-19T14:56:10.897Z,30.29
2022-08-19T14:58:39.207Z,30.07
2022-08-19T15:01:06.127Z,30.81
2022-08-19T15:03:33.183Z,31.01
2022-08-19T15:06:04.260Z,32.01
2022-08-19T15:08:32.890Z,32.99
2022-08-19T15:11:00.350Z,31.35
2022-08-19T15:13:28.559Z,29.74
2022-08-19T15:15:56.448Z,28.82
2022-08-19T15:18:23.986Z,27.51
2022-08-19T15:20:51.913Z,26.36
2022-08-19T15:23:20.576Z,25.80
2022-08-19T15:25:47.737Z,25.36
2022-08-19T15:28:16.399Z,25.29
2022-08-19T15:30:44.528Z,25.68
2022-08-19T15:33:15.082Z,25.67
2022-08-19T15:35:43.420Z,26.08
2022-08-19T15:38:11.750Z,27.85
2022-08-19T15:40:38.673Z,28.57
2022-08-19T15:43:05.943Z,28.06
2022-08-19T15:45:33.000Z,26.53
2022-08-19T15:48:01.029Z,25.77
2022-08-19T15:50:28.753Z,25.33
2022-08-19T15:52:59.072Z,24.82
2022-08-19T15:55:33.131Z,24.40
2022-08-19T15:58:28.933Z,24.31
2022-08-19T16:01:20.302Z,24.15
2022-08-19T16:04:13.820Z,23.96
2022-08-19T16:06:54.283Z,23.94
2022-08-19T16:09:27.367Z,23.95
2022-08-19T16:12:02.030Z,23.85
2022-08-19T16:14:35.310Z,23.80
2022-08-19T16:17:02.195Z,23.53
2022-08-19T16:19:29.150Z,23.16
2022-08-19T16:21:57.136Z,23.09
2022-08-19T16:24:27.882Z,23.08
2022-08-19T16:26:56.055Z,22.98
2022-08-19T16:29:34.669Z,22.82
2022-08-19T16:32:10.045Z,22.83
2022-08-19T16:34:38.665Z,22.73
2022-08-19T16:37:05.533Z,22.64
2022-08-19T16:39:32.370Z,22.68
2022-08-19T16:41:59.611Z,22.59
2022-08-19T16:44:29.671Z,22.46
2022-08-19T16:46:59.812Z,22.64
2022-08-19T16:49:54.540Z,22.79
2022-08-19T16:52:19.597Z,22.96
2022-08-19T16:54:47.364Z,23.05
2022-08-19T16:57:14.752Z,23.12
2022-08-19T16:59:43.699Z,23.20
2022-08-19T17:02:15.996Z,23.13
2022-08-19T17:04:42.820Z,23.13
2022-08-19T17:07:10.702Z,23.10
2022-08-19T17:09:38.391Z,22.99
2022-08-19T17:12:05.652Z,22.88
2022-08-19T17:14:32.413Z,22.75
2022-08-19T17:16:59.187Z,22.55
2022-08-19T17:19:26.049Z,22.40
2022-08-19T17:21:52.977Z,22.27
2022-08-19T17:24:19.878Z,22.14
2022-08-19T17:26:46.738Z,22.08
2022-08-19T17:29:14.190Z,22.04
2022-08-19T17:31:40.993Z,22.06
2022-08-19T17:34:09.230Z,22.16
2022-08-19T17:36:36.169Z,22.17
2022-08-19T17:39:05.053Z,22.16
2022-08-19T17:41:34.244Z,22.27
2022-08-19T17:44:02.393Z,22.47
2022-08-19T17:46:30.105Z,22.52
2022-08-19T17:48:57.829Z,22.58
2022-08-19T17:51:43.232Z,22.51
2022-08-19T17:54:16.799Z,22.49
2022-08-19T17:56:45.254Z,22.43
2022-08-19T17:59:14.260Z,22.35
2022-08-19T18:01:53.873Z,22.27
2022-08-19T18:04:25.510Z,22.11
2022-08-19T18:06:55.032Z,22.12
2022-08-19T18:09:42.261Z,22.01
2022-08-19T18:12:12.768Z,21.91
2022-08-19T18:14:40.362Z,21.87
2022-08-19T18:17:11.019Z,21.73
2022-08-19T18:19:42.434Z,21.65
2022-08-19T18:22:22.879Z,21.60
2022-08-19T18:24:49.949Z,21.56
2022-08-19T18:27:16.844Z,21.55
2022-08-19T18:29:44.589Z,21.50
2022-08-19T18:32:14.666Z,21.52
2022-08-19T18:34:43.192Z,21.49
2022-08-19T18:37:11.104Z,21.39
2022-08-19T18:39:57.188Z,21.32
2022-08-19T18:42:43.142Z,21.29
2022-08-19T18:45:28.977Z,21.35
2022-08-19T18:48:26.828Z,21.30
2022-08-19T18:50:56.819Z,21.33
2022-08-19T18:53:24.687Z,21.33
2022-08-19T18:55:55.037Z,21.25
2022-08-19T18:58:33.181Z,21.16
2022-08-19T19:01:06.833Z,21.08
2022-08-19T19:03:33.977Z,21.03
2022-08-19T19:06:01.386Z,20.93
2022-08-19T19:08:28.167Z,20.83
2022-08-19T19:10:56.637Z,20.70
2022-08-19T19:13:23.444Z,20.62
2022-08-19T19:15:50.234Z,20.48
2022-08-19T19:18:17.031Z,20.36
2022-08-19T19:20:43.765Z,20.24
2022-08-19T19:23:10.535Z,20.12
2022-08-19T19:25:49.571Z,20.02
2022-08-19T19:28:29.259Z,19.96
2022-08-19T19:31:00.451Z,19.94
2022-08-19T19:33:28.215Z,19.92
2022-08-19T19:35:55.475Z,19.92
2022-08-19T19:38:22.279Z,19.85
2022-08-19T19:40:49.115Z,19.74
2022-08-19T19:43:17.171Z,19.62
2022-08-19T19:45:44.742Z,19.51
2022-08-19T19:48:13.501Z,19.45
2022-08-19T19:50:40.771Z,19.38
2022-08-19T19:53:07.550Z,19.33
2022-08-19T19:55:34.468Z,19.31
2022-08-19T19:58:01.232Z,19.34
2022-08-19T20:00:28.009Z,19.35
2022-08-19T20:02:55.917Z,19.35
2022-08-19T20:05:24.000Z,19.37
2022-08-19T20:08:11.218Z,19.46
2022-08-19T20:10:39.265Z,19.51
2022-08-19T20:13:07.518Z,19.53
2022-08-19T20:15:39.058Z,19.59
2022-08-19T20:18:08.697Z,19.59
2022-08-19T20:20:35.744Z,19.63
2022-08-19T20:23:02.671Z,19.64
2022-08-19T20:25:30.428Z,19.67
2022-08-19T20:27:57.411Z,19.68
2022-08-19T20:30:24.861Z,19.68
2022-08-19T20:32:52.081Z,19.65
2022-08-19T20:35:21.264Z,19.57
2022-08-19T20:37:49.153Z,19.57
2022-08-19T20:40:20.327Z,19.59
2022-08-19T20:42:50.560Z,19.57
2022-08-19T20:45:32.359Z,19.56
2022-08-19T20:48:02.459Z,19.60
2022-08-19T20:50:30.364Z,19.61
2022-08-19T20:52:57.825Z,19.60
2022-08-19T20:55:26.433Z,19.60
2022-08-19T20:57:53.814Z,19.63
2022-08-19T21:00:20.872Z,19.69
2022-08-19T21:02:47.629Z,19.69
2022-08-19T21:05:15.114Z,19.72
2022-08-19T21:07:42.806Z,19.75
2022-08-19T21:10:09.623Z,19.78
2022-08-19T21:12:36.743Z,19.80
2022-08-19T21:15:04.600Z,19.78
2022-08-19T21:17:31.621Z,19.81
2022-08-19T21:19:58.430Z,19.78
2022-08-19T21:22:25.198Z,19.79
2022-08-19T21:24:52.058Z,19.79
2022-08-19T21:27:18.828Z,19.83
2022-08-19T21:29:45.610Z,19.88
2022-08-19T21:32:14.125Z,19.86
2022-08-19T21:34:43.929Z,19.83
2022-08-19T21:37:18.954Z,19.78
2022-08-19T21:39:53.920Z,19.74
2022-08-19T21:42:22.093Z,19.73
2022-08-19T21:44:49.366Z,19.77
2022-08-19T21:47:16.213Z,19.70
2022-08-19T21:49:43.041Z,19.61
2022-08-19T21:52:09.823Z,19.54
2022-08-19T21:54:38.245Z,19.44
2022-08-19T21:57:10.522Z,19.38
2022-08-19T21:59:43.828Z,19.37
2022-08-19T22:02:21.337Z,19.33
2022-08-19T22:04:50.803Z,19.30
2022-08-19T22:07:19.088Z,19.23
2022-08-19T22:09:47.365Z,19.23
2022-08-19T22:12:32.835Z,19.23
2022-08-19T22:15:00.019Z,19.22
2022-08-19T22:17:27.606Z,19.22
2022-08-19T22:19:56.292Z,19.22
2022-08-19T22:22:28.620Z,19.21
2022-08-19T22:25:06.675Z,19.24
2022-08-19T22:27:33.493Z,19.24
2022-08-19T22:30:00.251Z,19.19
2022-08-19T22:32:28.542Z,19.15
2022-08-19T22:34:58.753Z,19.17
2022-08-19T22:37:28.844Z,19.15
2022-08-19T22:39:55.955Z,19.08
2022-08-19T22:42:22.870Z,18.97
2022-08-19T22:44:49.834Z,18.87
2022-08-19T22:47:16.604Z,18.81
2022-08-19T22:49:44.274Z,18.70
2022-08-19T22:52:18.185Z,18.64
2022-08-19T22:54:50.795Z,18.58
2022-08-19T22:57:21.345Z,18.55
2022-08-19T22:59:50.676Z,18.53
2022-08-19T23:02:19.944Z,18.46
2022-08-19T23:04:46.740Z,18.42
2022-08-19T23:07:13.880Z,18.39
2022-08-19T23:09:40.657Z,18.33
2022-08-19T23:12:09.268Z,18.29
2022-08-19T23:14:37.461Z,18.25
2022-08-19T23:17:05.275Z,18.23
2022-08-19T23:19:33.249Z,18.17
2022-08-19T23:22:00.290Z,18.13
2022-08-19T23:24:27.092Z,18.10
2022-08-19T23:27:12.435Z,18.11
2022-08-19T23:29:58.019Z,18.09
2022-08-19T23:32:25.553Z,18.08
2022-08-19T23:34:55.845Z,18.10
2022-08-19T23:37:23.077Z,18.08
2022-08-19T23:39:51.002Z,18.03
2022-08-19T23:42:18.020Z,18.03
2022-08-19T23:44:52.157Z,17.99
2022-08-19T23:47:20.997Z,17.94
2022-08-19T23:49:48.724Z,17.89
2022-08-19T23:52:15.616Z,17.86
2022-08-19T23:54:43.648Z,17.83
2022-08-19T23:57:13.422Z,17.79
2022-08-19T23:59:42.678Z,17.79
